createdAt,value
2023-01-22T00:00:22.515Z,73.24
2023-01-22T00:03:28.892Z,73.13
2023-01-22T00:06:34.895Z,73.09
2023-01-22T00:09:39.791Z,72.90
2023-01-22T00:12:45.891Z,73.00
2023-01-22T00:15:54.389Z,73.15
2023-01-22T00:19:00.735Z,73.26
2023-01-22T00:22:07.234Z,73.16
2023-01-22T00:25:13.130Z,73.22
2023-01-22T00:28:18.709Z,73.12
2023-01-22T00:31:26.327Z,73.21
2023-01-22T00:34:33.853Z,73.04
2023-01-22T00:37:42.389Z,73.14
2023-01-22T00:40:47.916Z,73.26
2023-01-22T00:43:53.492Z,73.38
2023-01-22T00:46:59.758Z,73.40
2023-01-22T00:50:07.430Z,73.33
2023-01-22T00:53:14.103Z,73.30
2023-01-22T00:56:22.631Z,73.41
2023-01-22T00:59:27.472Z,73.43
2023-01-22T01:02:34.842Z,73.49
2023-01-22T01:05:40.729Z,73.24
2023-01-22T01:08:49.938Z,73.38
2023-01-22T01:11:58.164Z,73.50
2023-01-22T01:15:04.326Z,73.44
2023-01-22T01:18:10.246Z,73.31
2023-01-22T01:21:16.213Z,73.30
2023-01-22T01:24:23.328Z,73.44
2023-01-22T01:27:29.286Z,73.44
2023-01-22T01:30:37.806Z,73.29
2023-01-22T01:33:43.024Z,73.09
2023-01-22T01:36:49.726Z,73.31
2023-01-22T01:39:57.502Z,73.45
2023-01-22T01:43:04.167Z,73.61
2023-01-22T01:46:03.580Z,73.61
2023-01-22T01:49:12.013Z,73.69
2023-01-22T01:52:23.215Z,73.61
2023-01-22T01:55:30.601Z,73.59
2023-01-22T01:58:38.379Z,73.64
2023-01-22T02:01:44.789Z,73.67
2023-01-22T02:04:50.590Z,73.54
2023-01-22T02:07:57.679Z,73.59
2023-01-22T02:11:03.835Z,73.65
2023-01-22T02:14:20.015Z,73.76
2023-01-22T02:17:32.408Z,73.80
2023-01-22T02:20:39.975Z,73.81
2023-01-22T02:23:45.821Z,73.77
2023-01-22T02:26:53.415Z,73.83
2023-01-22T02:29:59.136Z,73.87
2023-01-22T02:33:06.656Z,73.90
2023-01-22T02:36:13.175Z,73.82
2023-01-22T02:39:19.229Z,73.78
2023-01-22T02:42:26.552Z,73.79
2023-01-22T02:45:34.943Z,73.79
2023-01-22T02:48:39.932Z,73.79
2023-01-22T02:51:47.701Z,73.62
2023-01-22T02:54:53.966Z,73.63
2023-01-22T02:58:00.448Z,73.68
2023-01-22T03:01:07.103Z,73.77
2023-01-22T03:04:18.265Z,73.71
2023-01-22T03:07:24.212Z,73.53
2023-01-22T03:10:34.760Z,73.62
2023-01-22T03:14:00.617Z,73.62
2023-01-22T03:17:12.233Z,73.69
2023-01-22T03:20:36.248Z,73.84
2023-01-22T03:23:42.462Z,73.94
2023-01-22T03:26:49.485Z,73.94
2023-01-22T03:29:56.571Z,73.87
2023-01-22T03:33:03.647Z,73.99
2023-01-22T03:36:08.417Z,74.00
2023-01-22T03:39:16.133Z,74.04
2023-01-22T03:42:26.046Z,73.97
2023-01-22T03:45:32.127Z,73.85
2023-01-22T03:48:41.848Z,74.00
2023-01-22T03:51:48.358Z,74.07
2023-01-22T03:54:56.189Z,74.06
2023-01-22T03:58:04.126Z,74.10
2023-01-22T04:01:12.200Z,74.13
2023-01-22T04:04:18.639Z,74.12
2023-01-22T04:07:24.371Z,73.99
2023-01-22T04:10:29.336Z,74.03
2023-01-22T04:13:35.386Z,74.18
2023-01-22T04:16:43.206Z,74.28
2023-01-22T04:20:00.555Z,74.17
2023-01-22T04:23:15.196Z,74.07
2023-01-22T04:26:24.532Z,74.16
2023-01-22T04:29:31.807Z,74.19
2023-01-22T04:32:39.294Z,74.17
2023-01-22T04:35:46.299Z,74.18
2023-01-22T04:38:52.159Z,74.19
2023-01-22T04:41:57.449Z,73.99
2023-01-22T04:45:04.041Z,73.84
2023-01-22T04:48:10.313Z,73.87
2023-01-22T04:51:17.492Z,74.03
2023-01-22T04:54:23.315Z,74.26
2023-01-22T04:57:29.101Z,74.37
2023-01-22T05:00:36.086Z,74.45
2023-01-22T05:03:44.209Z,74.50
2023-01-22T05:06:50.649Z,74.47
2023-01-22T05:09:56.289Z,74.40
2023-01-22T05:13:02.245Z,74.36
2023-01-22T05:16:08.906Z,74.26
2023-01-22T05:19:15.135Z,74.20
2023-01-22T05:22:21.240Z,74.29
2023-01-22T05:25:26.517Z,74.39
2023-01-22T05:28:32.849Z,74.43
2023-01-22T05:31:43.848Z,74.42
2023-01-22T05:34:59.071Z,74.48
2023-01-22T05:38:08.590Z,74.46
2023-01-22T05:41:14.301Z,74.41
2023-01-22T05:44:21.389Z,74.33
2023-01-22T05:47:28.073Z,74.46
2023-01-22T05:50:38.681Z,74.53
2023-01-22T05:53:52.986Z,74.64
2023-01-22T05:57:00.932Z,74.71
2023-01-22T06:00:07.184Z,74.76
2023-01-22T06:03:16.111Z,74.82
2023-01-22T06:06:19.544Z,74.81
2023-01-22T06:09:30.388Z,74.81
2023-01-22T06:12:36.561Z,74.84
2023-01-22T06:19:04.984Z,74.89
2023-01-22T06:22:16.775Z,74.90
2023-01-22T06:25:25.049Z,74.92
2023-01-22T06:28:31.804Z,74.95
2023-01-22T06:31:40.299Z,74.98
2023-01-22T06:34:48.887Z,74.95
2023-01-22T06:37:55.064Z,74.89
2023-01-22T06:41:08.362Z,74.78
2023-01-22T06:44:15.843Z,74.73
2023-01-22T06:47:21.735Z,74.67
2023-01-22T06:50:28.178Z,74.76
2023-01-22T06:53:34.223Z,74.82
2023-01-22T06:56:40.274Z,74.86
2023-01-22T06:59:45.182Z,74.90
2023-01-22T07:02:50.549Z,74.75
2023-01-22T07:05:57.426Z,74.71
2023-01-22T07:09:04.799Z,74.46
2023-01-22T07:12:11.636Z,74.49
2023-01-22T07:15:18.197Z,74.58
2023-01-22T07:18:27.214Z,74.63
2023-01-22T07:21:33.710Z,74.55
2023-01-22T07:24:40.063Z,74.64
2023-01-22T07:27:46.803Z,74.67
2023-01-22T07:30:54.463Z,74.71
2023-01-22T07:34:00.284Z,74.75
2023-01-22T07:37:05.540Z,74.79
2023-01-22T07:40:12.324Z,74.75
2023-01-22T07:43:24.145Z,74.77
2023-01-22T07:46:32.668Z,74.84
2023-01-22T07:49:38.352Z,74.55
2023-01-22T07:52:44.951Z,74.65
2023-01-22T07:55:50.703Z,74.72
2023-01-22T07:58:56.954Z,74.69
2023-01-22T08:02:03.801Z,74.63
2023-01-22T08:05:10.041Z,74.57
2023-01-22T08:08:16.362Z,74.51
2023-01-22T08:11:23.760Z,74.61
2023-01-22T08:14:29.812Z,74.72
2023-01-22T08:17:35.246Z,74.77
2023-01-22T08:20:42.958Z,74.69
2023-01-22T08:23:49.529Z,74.73
2023-01-22T08:26:55.715Z,74.66
2023-01-22T08:30:02.197Z,74.66
2023-01-22T08:33:01.269Z,74.61
2023-01-22T08:36:07.181Z,74.64
2023-01-22T08:39:13.497Z,74.64
2023-01-22T08:42:19.371Z,74.51
2023-01-22T08:45:27.173Z,74.56
2023-01-22T08:48:33.184Z,74.63
2023-01-22T08:51:39.090Z,74.70
2023-01-22T08:54:44.148Z,74.71
2023-01-22T08:57:51.843Z,74.52
2023-01-22T09:00:58.031Z,74.58
2023-01-22T09:04:03.895Z,74.52
2023-01-22T09:07:11.192Z,74.49
2023-01-22T09:10:21.508Z,74.59
2023-01-22T09:13:27.674Z,74.58
2023-01-22T09:16:34.579Z,74.65
2023-01-22T09:19:40.793Z,74.70
2023-01-22T09:22:46.653Z,74.62
2023-01-22T09:25:53.187Z,74.40
2023-01-22T09:28:53.557Z,74.37
2023-01-22T09:32:00.190Z,74.38
2023-01-22T09:35:06.309Z,74.29
2023-01-22T09:38:12.476Z,74.27
2023-01-22T09:41:40.680Z,74.20
2023-01-22T09:44:56.130Z,74.35
2023-01-22T09:48:07.090Z,74.24
2023-01-22T09:51:11.776Z,74.37
2023-01-22T09:54:21.737Z,74.41
2023-01-22T09:57:32.400Z,74.37
2023-01-22T10:00:40.844Z,74.38
2023-01-22T10:04:08.055Z,74.40
2023-01-22T10:07:16.083Z,74.46
2023-01-22T10:10:33.921Z,74.48
2023-01-22T10:13:48.905Z,74.51
2023-01-22T10:16:55.758Z,74.52
2023-01-22T10:20:04.994Z,74.41
2023-01-22T10:23:13.777Z,74.48
2023-01-22T10:26:32.127Z,74.45
2023-01-22T10:29:47.613Z,74.52
2023-01-22T10:32:54.889Z,74.49
2023-01-22T10:36:06.391Z,74.49
2023-01-22T10:39:29.146Z,74.35
2023-01-22T10:42:39.464Z,74.34
2023-01-22T10:45:45.045Z,74.41
2023-01-22T10:48:50.977Z,74.41
2023-01-22T10:52:01.414Z,74.38
2023-01-22T10:55:10.759Z,74.39
2023-01-22T10:58:22.968Z,74.40
2023-01-22T11:01:41.897Z,74.22
2023-01-22T11:04:48.893Z,74.31
2023-01-22T11:07:56.745Z,74.42
2023-01-22T11:11:17.299Z,74.49
2023-01-22T11:14:33.630Z,74.55
2023-01-22T11:17:50.563Z,74.56
2023-01-22T11:21:10.379Z,74.62
2023-01-22T11:24:26.119Z,74.64
2023-01-22T11:28:05.238Z,74.53
2023-01-22T11:31:34.340Z,74.50
2023-01-22T11:34:53.969Z,74.43
2023-01-22T11:38:12.622Z,74.42
2023-01-22T11:41:30.868Z,74.40
2023-01-22T11:44:50.456Z,74.31
2023-01-22T11:48:19.759Z,74.39
2023-01-22T11:51:59.313Z,74.53
2023-01-22T11:55:29.198Z,74.67
2023-01-22T11:58:57.470Z,74.61
2023-01-22T12:02:17.460Z,74.56
2023-01-22T12:06:05.082Z,74.19
2023-01-22T12:09:31.909Z,74.35
2023-01-22T12:12:48.538Z,74.55
2023-01-22T12:16:21.587Z,74.68
2023-01-22T12:19:53.210Z,74.69
2023-01-22T12:23:13.566Z,74.66
2023-01-22T12:26:36.661Z,74.52
2023-01-22T12:29:54.625Z,74.60
2023-01-22T12:33:06.256Z,74.60
2023-01-22T12:36:16.676Z,74.62
2023-01-22T12:39:40.671Z,74.69
2023-01-22T12:42:58.048Z,74.79
2023-01-22T12:46:49.591Z,74.83
2023-01-22T12:50:04.944Z,74.86
2023-01-22T12:53:21.113Z,74.91
2023-01-22T12:56:26.410Z,74.85
2023-01-22T12:59:57.666Z,74.85
2023-01-22T13:03:04.779Z,74.72
2023-01-22T13:06:12.249Z,74.71
2023-01-22T13:09:24.127Z,74.66
2023-01-22T13:12:42.068Z,74.74
2023-01-22T13:15:52.084Z,74.78
2023-01-22T13:19:04.940Z,74.83
2023-01-22T13:22:15.966Z,74.50
2023-01-22T13:25:20.661Z,74.35
2023-01-22T13:28:33.096Z,74.42
2023-01-22T13:31:42.563Z,74.42
2023-01-22T13:34:48.689Z,74.59
2023-01-22T13:37:54.715Z,74.57
2023-01-22T13:41:02.186Z,74.76
2023-01-22T13:44:08.811Z,74.93
2023-01-22T13:47:16.112Z,74.98
2023-01-22T13:50:21.193Z,75.01
2023-01-22T13:53:30.457Z,75.00
2023-01-22T13:56:37.285Z,74.98
2023-01-22T13:59:44.263Z,75.01
2023-01-22T14:02:50.766Z,75.00
2023-01-22T14:05:56.294Z,75.02
2023-01-22T14:09:06.835Z,74.99
2023-01-22T14:12:14.576Z,74.89
2023-01-22T14:15:35.923Z,74.93
2023-01-22T14:18:41.917Z,75.00
2023-01-22T14:21:47.514Z,75.02
2023-01-22T14:24:53.919Z,74.94
2023-01-22T14:28:02.485Z,74.93
2023-01-22T14:31:09.743Z,74.88
2023-01-22T14:34:18.292Z,74.84
2023-01-22T14:37:30.541Z,74.91
2023-01-22T14:40:38.857Z,74.88
2023-01-22T14:43:45.143Z,74.90
2023-01-22T14:46:51.336Z,74.75
2023-01-22T14:49:58.279Z,74.84
2023-01-22T14:53:04.907Z,74.96
2023-01-22T14:56:11.484Z,75.03
2023-01-22T14:59:20.958Z,75.00
2023-01-22T15:02:22.199Z,74.88
2023-01-22T15:05:15.799Z,74.80
2023-01-22T15:08:21.926Z,74.93
2023-01-22T15:11:28.023Z,75.00
2023-01-22T15:14:36.403Z,75.11
2023-01-22T15:17:42.741Z,74.94
2023-01-22T15:20:47.023Z,74.88
2023-01-22T15:23:52.085Z,74.96
2023-01-22T15:26:57.248Z,74.94
2023-01-22T15:30:04.036Z,74.86
2023-01-22T15:33:11.414Z,74.93
2023-01-22T15:36:19.314Z,74.90
2023-01-22T15:39:25.641Z,75.00
2023-01-22T15:42:34.969Z,75.08
2023-01-22T15:45:42.819Z,75.11
2023-01-22T15:48:48.714Z,75.11
2023-01-22T15:51:55.661Z,75.04
2023-01-22T15:55:01.552Z,75.00
2023-01-22T15:58:07.808Z,75.08
2023-01-22T16:01:12.834Z,75.09
2023-01-22T16:04:18.219Z,74.83
2023-01-22T16:07:29.599Z,74.83
2023-01-22T16:10:36.395Z,74.94
2023-01-22T16:13:41.690Z,74.99
2023-01-22T16:16:50.243Z,75.08
2023-01-22T16:19:58.690Z,75.09
2023-01-22T16:23:03.558Z,75.09
2023-01-22T16:26:10.107Z,75.05
2023-01-22T16:29:19.401Z,74.94
2023-01-22T16:32:25.039Z,74.93
2023-01-22T16:35:32.376Z,74.81
2023-01-22T16:38:39.204Z,74.89
2023-01-22T16:41:50.548Z,74.97
2023-01-22T16:44:55.819Z,75.01
2023-01-22T16:48:01.335Z,74.91
2023-01-22T16:51:07.503Z,74.77
2023-01-22T16:54:06.690Z,74.69
2023-01-22T16:57:15.883Z,74.82
2023-01-22T17:00:35.898Z,74.77
2023-01-22T17:03:42.379Z,74.73
2023-01-22T17:06:52.179Z,74.88
2023-01-22T17:09:58.798Z,74.86
2023-01-22T17:13:03.228Z,74.89
2023-01-22T17:16:09.411Z,74.92
2023-01-22T17:19:15.475Z,74.94
2023-01-22T17:22:22.854Z,74.75
2023-01-22T17:25:30.162Z,74.73
2023-01-22T17:28:35.216Z,74.83
2023-01-22T17:31:40.725Z,74.87
2023-01-22T17:34:49.467Z,74.96
2023-01-22T17:37:56.313Z,74.86
2023-01-22T17:41:04.524Z,74.83
2023-01-22T17:44:11.184Z,74.74
2023-01-22T17:47:19.001Z,74.79
2023-01-22T17:50:26.869Z,74.89
2023-01-22T17:53:33.306Z,74.91
2023-01-22T17:56:41.781Z,74.95
2023-01-22T17:59:47.805Z,75.04
2023-01-22T18:02:55.075Z,74.92
2023-01-22T18:06:01.422Z,74.94
2023-01-22T18:09:09.283Z,74.99
2023-01-22T18:12:15.654Z,75.01
2023-01-22T18:15:22.754Z,74.99
2023-01-22T18:18:28.432Z,74.93
2023-01-22T18:21:34.985Z,74.87
2023-01-22T18:24:42.210Z,74.78
2023-01-22T18:27:48.795Z,74.78
2023-01-22T18:30:54.821Z,74.75
2023-01-22T18:34:01.330Z,74.73
2023-01-22T18:37:08.595Z,74.70
2023-01-22T18:40:13.698Z,74.66
2023-01-22T18:43:21.849Z,74.68
2023-01-22T18:46:31.042Z,74.66
2023-01-22T18:49:36.530Z,74.69
2023-01-22T18:52:43.808Z,74.69
2023-01-22T18:55:51.030Z,74.68
2023-01-22T18:58:58.729Z,74.68
2023-01-22T19:02:09.178Z,74.64
2023-01-22T19:05:14.914Z,74.55
2023-01-22T19:08:21.392Z,74.47
2023-01-22T19:11:30.526Z,74.52
2023-01-22T19:14:36.974Z,74.47
2023-01-22T19:17:43.370Z,74.39
2023-01-22T19:20:52.346Z,74.44
2023-01-22T19:24:04.149Z,74.43
2023-01-22T19:27:10.907Z,74.28
2023-01-22T19:30:17.061Z,74.32
2023-01-22T19:33:24.090Z,74.33
2023-01-22T19:36:29.975Z,74.33
2023-01-22T19:39:37.552Z,74.38
2023-01-22T19:42:47.275Z,74.33
2023-01-22T19:45:54.135Z,74.29
2023-01-22T19:49:00.957Z,74.11
2023-01-22T19:52:07.517Z,74.00
2023-01-22T19:55:13.872Z,74.02
2023-01-22T19:58:20.537Z,74.01
2023-01-22T20:01:27.857Z,74.07
2023-01-22T20:04:40.603Z,73.99
2023-01-22T20:07:47.681Z,73.84
2023-01-22T20:10:53.932Z,73.76
2023-01-22T20:13:59.998Z,73.96
2023-01-22T20:17:08.646Z,74.06
2023-01-22T20:20:16.845Z,74.14
2023-01-22T20:23:23.496Z,74.24
2023-01-22T20:26:28.492Z,74.28
2023-01-22T20:29:36.865Z,74.31
2023-01-22T20:32:43.234Z,74.23
2023-01-22T20:35:49.185Z,74.21
2023-01-22T20:38:56.112Z,74.26
2023-01-22T20:42:03.107Z,74.31
2023-01-22T20:45:12.459Z,74.24
2023-01-22T20:48:19.432Z,74.17
2023-01-22T20:51:32.337Z,74.18
2023-01-22T20:54:50.058Z,74.18
2023-01-22T20:57:46.497Z,74.14
2023-01-22T21:00:53.865Z,73.97
2023-01-22T21:04:04.031Z,73.89
2023-01-22T21:07:11.511Z,73.65
2023-01-22T21:10:18.168Z,73.69
2023-01-22T21:13:26.360Z,73.73
2023-01-22T21:16:38.456Z,73.70
2023-01-22T21:19:44.875Z,73.83
2023-01-22T21:22:54.041Z,73.96
2023-01-22T21:26:00.066Z,74.04
2023-01-22T21:29:10.932Z,74.17
2023-01-22T21:32:17.960Z,74.22
2023-01-22T21:35:25.111Z,74.16
2023-01-22T21:38:32.080Z,74.07
2023-01-22T21:41:41.196Z,74.04
2023-01-22T21:45:04.370Z,74.13
2023-01-22T21:48:11.355Z,74.03
2023-01-22T21:51:19.189Z,73.89
2023-01-22T21:54:25.325Z,73.88
2023-01-22T21:57:31.425Z,73.89
2023-01-22T22:00:37.247Z,73.91
2023-01-22T22:03:43.325Z,74.05
2023-01-22T22:06:49.901Z,74.19
2023-01-22T22:09:57.210Z,74.16
2023-01-22T22:13:03.956Z,74.19
2023-01-22T22:16:09.989Z,74.11
2023-01-22T22:19:17.872Z,74.04
2023-01-22T22:22:24.182Z,74.06
2023-01-22T22:25:31.411Z,73.94
2023-01-22T22:28:38.595Z,73.95
2023-01-22T22:31:44.732Z,74.02
2023-01-22T22:34:51.077Z,74.07
2023-01-22T22:37:57.346Z,74.10
2023-01-22T22:41:17.374Z,74.01
2023-01-22T22:44:24.807Z,74.04
2023-01-22T22:47:31.376Z,74.18
2023-01-22T22:50:37.481Z,74.19
2023-01-22T22:53:45.636Z,73.89
2023-01-22T22:56:51.753Z,73.95
2023-01-22T22:59:58.967Z,74.00
2023-01-22T23:03:04.564Z,74.07
2023-01-22T23:06:14.537Z,74.12
2023-01-22T23:09:20.169Z,74.05
2023-01-22T23:12:26.127Z,74.00
2023-01-22T23:15:32.258Z,73.90
2023-01-22T23:18:37.453Z,73.96
2023-01-22T23:21:45.407Z,73.92
2023-01-22T23:24:55.056Z,73.92
2023-01-22T23:28:03.009Z,74.01
2023-01-22T23:31:10.153Z,73.94
2023-01-22T23:34:16.719Z,73.82
2023-01-22T23:37:23.158Z,73.71
2023-01-22T23:40:28.914Z,73.66
2023-01-22T23:43:34.771Z,73.43
2023-01-22T23:46:42.823Z,73.51
2023-01-22T23:49:49.091Z,73.49
2023-01-22T23:52:54.991Z,73.69
2023-01-22T23:56:01.815Z,73.78
2023-01-22T23:59:10.787Z,73.94
